Terminal Aerodrome Forecast
Issued by NWS

Home | Current Version | Previous Version | Text Only | Print | Product List | Glossary Off
Versions: 1 2 3 4 5 6 7 8 9 10 11 12 13 14 15

000
FTUS43 KTOP 281132
TAFFOE
TAF
KFOE 281132Z 2812/2912 18011KT P6SM FEW200
     FM281500 19014G22KT P6SM FEW080
     FM290000 18008KT P6SM VCTS SCT060CB
     FM290300 21007KT P6SM VCTS SCT040CB BKN150
     FM291000 01008KT P6SM SCT020 BKN040=

USA.gov is the U.S. government's official web portal to all federal, state and local government web resources and services.